< < Back
Terminal Aerodrome Forecast


Current Version              Previous Versions:   1  2  3  4  5  6  7  8  9  

Terminal Aerodrome Forecast

868
FTUS44 KBMX 311700
TAFANB
TAF
KANB 311732Z 3118/0118 12003KT P6SM BKN250
     FM312200 09003KT P6SM OVC150
     FM011500 13008KT P6SM -RA OVC050=

Latest METAR

481
SAUS70 KWBC 312100 RRB
MTRANB
METAR KANB 312053Z AUTO 00000KT 10SM CLR 16/M11 A3027 RMK AO2 SLP256
T01561106 56027


USA.gov is the U.S. government's official web portal to all federal, state and local government web resources and services.